createdAt,value
2023-04-07T00:02:18.803Z,9.13
2023-04-07T00:07:21.692Z,10.20
2023-04-07T00:12:25.582Z,10.05
2023-04-07T00:17:27.875Z,7.40
2023-04-07T00:22:30.789Z,10.52
2023-04-07T00:27:33.155Z,6.70
2023-04-07T00:32:36.525Z,5.30
2023-04-07T00:37:39.133Z,4.18
2023-04-07T00:42:42.130Z,5.85
2023-04-07T00:47:45.755Z,10.43
2023-04-07T00:52:48.985Z,7.15
2023-04-07T00:57:54.120Z,7.70
2023-04-07T01:03:05.542Z,7.85
2023-04-07T01:08:21.012Z,8.60
2023-04-07T01:13:31.720Z,7.65
2023-04-07T01:18:47.951Z,9.30
2023-04-07T01:24:02.772Z,6.63
2023-04-07T01:29:31.580Z,6.07
2023-04-07T01:34:35.974Z,6.15
2023-04-07T01:39:41.427Z,6.35
2023-04-07T01:44:46.379Z,8.02
2023-04-07T01:49:50.132Z,8.80
2023-04-07T01:54:55.562Z,6.63
2023-04-07T01:59:58.603Z,4.93
2023-04-07T02:05:10.234Z,4.38
2023-04-07T02:10:17.403Z,4.55
2023-04-07T02:15:20.601Z,5.78
2023-04-07T02:20:25.150Z,5.55
2023-04-07T02:25:29.966Z,4.45
2023-04-07T02:30:34.203Z,5.28
2023-04-07T02:35:36.635Z,4.72
2023-04-07T02:40:39.747Z,5.00
2023-04-07T02:45:42.205Z,5.22
2023-04-07T02:50:44.624Z,6.78
2023-04-07T02:55:46.954Z,6.90
2023-04-07T03:00:50.919Z,9.80
2023-04-07T03:05:58.287Z,9.52
2023-04-07T03:11:00.997Z,7.85
2023-04-07T03:16:05.793Z,8.32
2023-04-07T03:21:17.710Z,8.48
2023-04-07T03:26:22.009Z,8.05
2023-04-07T03:31:25.675Z,6.78
2023-04-07T03:36:30.188Z,6.25
2023-04-07T03:41:36.974Z,5.60
2023-04-07T03:46:40.648Z,5.75
2023-04-07T03:51:44.377Z,5.25
2023-04-07T03:56:51.671Z,5.13
2023-04-07T04:01:59.052Z,7.40
2023-04-07T04:07:02.330Z,5.63
2023-04-07T04:12:21.813Z,7.10
2023-04-07T04:17:38.985Z,6.20
2023-04-07T04:22:43.758Z,7.35
2023-04-07T04:27:47.762Z,9.40
2023-04-07T04:32:55.822Z,8.68
2023-04-07T04:38:07.801Z,9.80
2023-04-07T04:43:12.379Z,7.32
2023-04-07T04:48:18.183Z,9.13
2023-04-07T04:53:23.421Z,8.18
2023-04-07T04:58:31.594Z,10.45
2023-04-07T05:03:35.687Z,6.30
2023-04-07T05:08:46.474Z,5.70
2023-04-07T05:13:51.554Z,11.35
2023-04-07T05:18:55.107Z,8.60
2023-04-07T05:24:01.070Z,10.93
2023-04-07T05:29:10.188Z,5.32
2023-04-07T05:34:14.265Z,4.90
2023-04-07T05:39:24.244Z,10.60
2023-04-07T05:44:30.900Z,6.60
2023-04-07T05:49:36.064Z,8.13
2023-04-07T05:54:42.462Z,5.00
2023-04-07T05:59:48.256Z,4.93
2023-04-07T06:04:52.478Z,5.07
2023-04-07T06:10:17.337Z,4.80
2023-04-07T06:15:21.292Z,5.25
2023-04-07T06:20:26.284Z,7.03
2023-04-07T06:25:28.720Z,4.88
2023-04-07T06:30:32.133Z,3.85
2023-04-07T06:35:36.325Z,3.97
2023-04-07T06:40:39.236Z,4.72
2023-04-07T06:45:47.062Z,4.53
2023-04-07T06:50:53.176Z,4.05
2023-04-07T06:56:11.651Z,4.88
2023-04-07T07:01:17.304Z,4.80
2023-04-07T07:06:21.720Z,4.25
2023-04-07T07:11:26.526Z,4.70
2023-04-07T07:16:29.771Z,5.13
2023-04-07T07:21:32.734Z,4.00
2023-04-07T07:26:35.041Z,4.53
2023-04-07T07:31:38.028Z,3.67
2023-04-07T07:36:41.285Z,3.42
2023-04-07T07:41:45.824Z,5.68
2023-04-07T07:46:51.348Z,4.22
2023-04-07T07:51:54.284Z,3.50
2023-04-07T07:56:59.091Z,3.35
2023-04-07T08:07:05.028Z,3.47
2023-04-07T08:12:07.953Z,4.38
2023-04-07T08:17:13.352Z,3.72
2023-04-07T08:22:16.275Z,3.35
2023-04-07T08:27:19.174Z,4.70
2023-04-07T08:32:27.055Z,3.53
2023-04-07T08:37:30.589Z,4.65
2023-04-07T08:42:35.003Z,4.55
2023-04-07T08:47:41.771Z,4.30
2023-04-07T08:53:01.020Z,3.00
2023-04-07T08:58:06.155Z,6.07
2023-04-07T09:03:11.528Z,5.28
2023-04-07T09:08:16.910Z,5.22
2023-04-07T09:18:23.498Z,5.05
2023-04-07T09:23:33.893Z,4.68
2023-04-07T09:28:42.382Z,4.18
2023-04-07T09:33:45.806Z,3.33
2023-04-07T09:38:49.395Z,8.93
2023-04-07T09:43:58.918Z,5.72
2023-04-07T09:49:08.268Z,7.70
2023-04-07T09:54:12.609Z,5.78
2023-04-07T09:59:16.824Z,8.45
2023-04-07T10:04:22.090Z,6.75
2023-04-07T10:09:29.020Z,5.10
2023-04-07T10:14:33.738Z,3.90
2023-04-07T10:19:36.740Z,3.72
2023-04-07T10:24:59.709Z,3.25
2023-04-07T10:30:28.777Z,4.15
2023-04-07T10:36:08.223Z,5.75
2023-04-07T10:41:34.025Z,5.80
2023-04-07T10:46:46.234Z,3.33
2023-04-07T10:52:14.212Z,4.00
2023-04-07T10:57:18.339Z,3.83
2023-04-07T11:02:24.445Z,4.35
2023-04-07T11:07:50.731Z,4.13
2023-04-07T11:13:04.100Z,4.57
2023-04-07T11:18:15.777Z,3.10
2023-04-07T11:23:20.482Z,4.90
2023-04-07T11:28:24.108Z,4.28
2023-04-07T11:33:31.461Z,5.78
2023-04-07T11:38:39.025Z,15.45
2023-04-07T11:43:42.775Z,4.70
2023-04-07T11:48:47.676Z,6.55
2023-04-07T11:53:57.385Z,23.55
2023-04-07T11:59:00.276Z,16.33
2023-04-07T12:04:05.312Z,3.80
2023-04-07T12:09:10.195Z,4.10
2023-04-07T12:14:16.316Z,6.15
2023-04-07T12:19:19.349Z,3.15
2023-04-07T12:24:23.212Z,4.07
2023-04-07T12:29:26.012Z,4.65
2023-04-07T12:34:29.172Z,3.83
2023-04-07T12:39:34.324Z,3.92
2023-04-07T12:44:41.471Z,3.78
2023-04-07T12:49:46.372Z,2.90
2023-04-07T12:54:51.100Z,3.05
2023-04-07T12:59:54.509Z,3.50
2023-04-07T13:04:57.410Z,3.33
2023-04-07T13:10:00.211Z,3.35
2023-04-07T13:15:02.796Z,3.72
2023-04-07T13:20:07.885Z,3.38
2023-04-07T13:25:10.943Z,3.00
2023-04-07T13:30:15.371Z,3.40
2023-04-07T13:35:19.532Z,2.75
2023-04-07T13:40:21.987Z,3.03
2023-04-07T13:45:25.693Z,3.13
2023-04-07T13:50:28.752Z,2.70
2023-04-07T13:55:31.078Z,2.72
2023-04-07T14:00:35.999Z,2.90
2023-04-07T14:05:38.899Z,3.08
2023-04-07T14:10:42.339Z,3.00
2023-04-07T14:15:46.027Z,3.67
2023-04-07T14:20:48.904Z,2.97
2023-04-07T14:25:51.187Z,3.85
2023-04-07T14:30:55.258Z,3.55
2023-04-07T14:35:58.140Z,4.28
2023-04-07T14:46:08.689Z,3.33
2023-04-07T14:51:13.052Z,3.05
2023-04-07T14:56:16.688Z,2.92
2023-04-07T15:01:19.112Z,3.60
2023-04-07T15:06:21.486Z,3.72
2023-04-07T15:11:24.199Z,3.30
2023-04-07T15:16:27.895Z,2.38
2023-04-07T15:21:31.186Z,2.50
2023-04-07T15:26:33.619Z,3.05
2023-04-07T15:31:36.155Z,3.67
2023-04-07T15:36:39.200Z,3.72
2023-04-07T15:41:41.827Z,2.63
2023-04-07T15:46:44.840Z,2.95
2023-04-07T15:51:47.257Z,3.33
2023-04-07T15:56:49.608Z,3.20
2023-04-07T16:01:53.668Z,4.85
2023-04-07T16:06:56.217Z,4.57
2023-04-07T16:11:58.496Z,3.58
2023-04-07T16:17:01.913Z,2.80
2023-04-07T16:22:05.066Z,2.67
2023-04-07T16:27:07.369Z,3.00
2023-04-07T16:32:09.900Z,3.67
2023-04-07T16:37:12.968Z,4.25
2023-04-07T16:42:15.619Z,4.88
2023-04-07T16:47:17.868Z,3.63
2023-04-07T16:52:21.154Z,4.00
2023-04-07T16:57:23.473Z,4.18
2023-04-07T17:02:27.766Z,3.63
2023-04-07T17:07:30.444Z,3.85
2023-04-07T17:12:32.748Z,3.53
2023-04-07T17:17:35.934Z,4.13
2023-04-07T17:22:38.263Z,2.97
2023-04-07T17:27:40.971Z,3.03
2023-04-07T17:32:43.666Z,3.05
2023-04-07T17:37:46.351Z,3.38
2023-04-07T17:42:48.854Z,2.90
2023-04-07T17:47:51.934Z,3.22
2023-04-07T17:52:54.413Z,2.15
2023-04-07T17:58:01.245Z,1.80
2023-04-07T18:03:04.316Z,2.40
2023-04-07T18:08:07.159Z,4.03
2023-04-07T18:13:15.300Z,4.85
2023-04-07T18:18:24.464Z,3.63
2023-04-07T18:23:27.474Z,4.40
2023-04-07T18:28:30.677Z,3.92
2023-04-07T18:33:34.399Z,3.55
2023-04-07T18:38:42.665Z,3.80
2023-04-07T18:43:47.722Z,4.35
2023-04-07T18:48:50.388Z,4.57
2023-04-07T18:53:52.736Z,4.43
2023-04-07T18:58:55.156Z,3.80
2023-04-07T19:03:57.798Z,3.63
2023-04-07T19:09:00.231Z,3.83
2023-04-07T19:14:02.657Z,3.92
2023-04-07T19:19:05.425Z,3.05
2023-04-07T19:24:07.972Z,2.00
2023-04-07T19:29:12.686Z,2.45
2023-04-07T19:34:14.928Z,2.00
2023-04-07T19:39:17.386Z,2.55
2023-04-07T19:44:19.899Z,4.60
2023-04-07T19:49:25.153Z,3.22
2023-04-07T19:54:28.271Z,4.05
2023-04-07T19:59:30.943Z,5.05
2023-04-07T20:04:33.628Z,4.13
2023-04-07T20:09:37.268Z,3.30
2023-04-07T20:14:39.675Z,2.80
2023-04-07T20:19:42.095Z,3.30
2023-04-07T20:24:45.606Z,2.00
2023-04-07T20:29:47.945Z,1.67
2023-04-07T20:34:52.428Z,2.75
2023-04-07T20:39:55.762Z,3.50
2023-04-07T20:45:03.980Z,2.78
2023-04-07T20:50:07.648Z,1.75
2023-04-07T20:55:12.011Z,1.08
2023-04-07T21:00:15.707Z,1.35
2023-04-07T21:05:20.780Z,1.60
2023-04-07T21:10:23.142Z,1.30
2023-04-07T21:15:26.200Z,1.30
2023-04-07T21:20:28.495Z,1.48
2023-04-07T21:25:31.437Z,1.30
2023-04-07T21:30:34.438Z,1.80
2023-04-07T21:35:38.233Z,2.05
2023-04-07T21:40:40.586Z,2.35
2023-04-07T21:45:44.182Z,2.53
2023-04-07T21:50:46.658Z,4.07
2023-04-07T21:55:49.665Z,5.43
2023-04-07T22:00:53.760Z,5.95
2023-04-07T22:06:00.951Z,6.07
2023-04-07T22:11:03.362Z,6.80
2023-04-07T22:16:07.120Z,6.07
2023-04-07T22:21:09.615Z,3.58
2023-04-07T22:26:12.069Z,2.10
2023-04-07T22:31:14.503Z,1.73
2023-04-07T22:36:16.997Z,1.92
2023-04-07T22:41:19.662Z,1.80
2023-04-07T22:46:21.917Z,1.90
2023-04-07T22:51:24.504Z,2.28
2023-04-07T22:56:27.397Z,2.00
2023-04-07T23:01:29.756Z,1.90
2023-04-07T23:06:32.311Z,1.88
2023-04-07T23:11:34.827Z,1.65
2023-04-07T23:16:37.358Z,2.00
2023-04-07T23:21:39.971Z,2.03
2023-04-07T23:26:42.286Z,1.92
2023-04-07T23:31:44.667Z,2.25
2023-04-07T23:36:47.077Z,2.28
2023-04-07T23:41:49.544Z,2.10
2023-04-07T23:46:51.857Z,2.42
2023-04-07T23:51:54.249Z,2.30
2023-04-07T23:56:57.295Z,2.60
